• Join FlightAware (Why Join?)
  • Login
  • US Flag 
11:19AM EDT


 

Airport Tracker/Info


-or-


 

Live Flight TrackerFlight Track Log ✈ AWI3778 ✈ 02-May-2013 ✈ KBTV - KPHL

Flight Track Log - Related Links

Times and Time Zones

All times are in EDT time to prevent confusion due to time zone crossing. See the AWI3778 flight status page for this flight to view local times or setup timezone preferences in your user account.

Time Position Orientation Groundspeed Altitude Reporting Facility
EDT Latitude Longitude Course Direction KTS MPH feet Rate Location/Type
01:31PM 44.1733 -73.2574 196° South  Level FlightAware Approximate
01:31PM 44.4542 -73.2833 203° Southwest 246 283 6,300  Level Boston Center
01:32PM 44.0758 -73.2964 196° South  Level FlightAware Approximate
01:32PM 44.3747 -73.3056 191° South 272 313 9,200  Level Boston Center
01:33PM 43.9783 -73.3354 196° South  Level FlightAware Approximate
01:33PM 44.2911 -73.3333 193° South 298 343 11,500  Level Boston Center
01:34PM 43.8807 -73.3738 195° South  Level FlightAware Approximate
01:34PM 44.2033 -73.3611 193° South 320 368 13,900  Level Boston Center
01:35PM 43.7827 -73.4100 195° South  Level FlightAware Approximate
01:35PM 44.1117 -73.3886 192° South 334 384 16,500  Level Boston Center
01:36PM 44.0217 -73.4158 192° South 334 384 18,200 1,680 Climbing Boston Center
01:37PM 43.9236 -73.4461 193° South 351 404 19,900 1,680 Climbing Boston Center
01:38PM 43.8275 -73.4761 193° South 356 410 21,600 1,440 Climbing Boston Center
01:39PM 43.7369 -73.5550 212° Southwest 362 417 22,800 1,200 Climbing Boston Center
01:40PM 43.6486 -73.6394 215° Southwest 383 441 24,000 1,080 Climbing Boston Center
01:41PM 43.5561 -73.7206 212° Southwest 398 458 25,200 900 Climbing Boston Center
01:42PM 43.4444 -73.8269 215° Southwest 403 464 26,000 360 Climbing Boston Center
01:43PM 43.3453 -73.9161 213° Southwest 420 483 26,000  Level Boston Center
01:44PM 43.2231 -74.0300 214° Southwest 441 507 26,000  Level Boston Center
01:45PM 43.1386 -74.1017 212° Southwest 446 513 26,000  Level Boston Center
01:46PM 43.0158 -74.2178 215° Southwest 446 513 26,000 -60 Level Boston Center
01:47PM 42.9122 -74.3111 213° Southwest 446 513 25,900  Descending Boston Center
01:48PM 42.8128 -74.4014 214° Southwest 446 513 26,000  Climbing Boston Center
01:49PM 42.7069 -74.4942 213° Southwest 446 513 26,000  Level Boston Center
01:50PM 42.6031 -74.5867 213° Southwest 446 513 26,000 -540 Level Boston Center
01:52PM 42.3928 -74.7744 213° Southwest 449 517 24,500 -1,020 Descending New York Center
01:53PM 42.2772 -74.8711 212° Southwest 466 536 22,900 -1,620 Descending New York Center
01:54PM 42.1719 -74.9681 214° Southwest 473 544 21,300 -1,620 Descending New York Center
01:55PM 42.0625 -75.0589 212° Southwest 470 541 19,800 -1,200 Descending New York Center
01:56PM 41.9553 -75.1439 211° Southwest 465 535 19,000 -420 Descending New York Center
01:57PM 41.8500 -75.2289 211° Southwest 459 528 19,000 -60 Level New York Center
01:58PM 41.7575 -75.3061 212° Southwest 449 517 18,900 -1,080 Descending New York Center
01:59PM 41.6544 -75.3878 211° Southwest 443 510 16,900 -2,460 Descending New York Center
02:00PM 41.5492 -75.4719 211° Southwest 425 489 14,100 -2,400 Descending New York Center
02:01PM 41.4567 -75.5486 212° Southwest 410 472 12,100 -1,140 Descending New York Center
02:02PM 41.3661 -75.6197 211° Southwest 391 450 11,900 -120 Descending New York Center
02:03PM 41.2864 -75.6856 212° Southwest 383 441 11,900  Level New York Center
02:04PM 41.1864 -75.6894 182° South 350 403 12,000  Climbing New York Center
02:05PM 41.0717 -75.6894 180° South 369 425 12,000  Level New York Center
02:06PM 40.9675 -75.6872 179° South 369 425 12,000  Level New York Center
02:07PM 40.8633 -75.6881 180° South 369 425 12,000  Level New York Center
02:08PM 40.7642 -75.6700 172° South 369 425 12,000 -720 Level New York Center
02:09PM 40.6833 -75.6067 149° Southeast 355 409 10,600 -1,020 Descending New York Center
02:10PM 40.5903 -75.5372 150° Southeast 361 415 10,000 -360 Descending New York Center
02:11PM 40.5136 -75.4800 150° Southeast 346 398 10,000 -240 Level New York Center
02:12PM 40.4464 -75.4372 154° Southeast 288 331 9,600 -660 Descending New York Center
02:13PM 40.3711 -75.4458 185° South 277 319 8,800 -960 Descending New York Center
02:14PM 40.2831 -75.4561 185° South 288 331 7,800 -840 Descending New York Center
02:15PM 40.2033 -75.4697 187° South 293 337 7,100 -360 Descending New York Center
02:16PM 40.1342 -75.4786 186° South 293 337 7,100 -360 Level New York Center
02:17PM 40.0503 -75.4919 187° South 293 337 6,500 -600 Descending New York Center
02:18PM 39.9811 -75.4981 184° South 288 331 6,000 -300 Descending New York Center
02:19PM 39.9225 -75.5106 189° South 244 281 6,000  Level New York Center
02:20PM 39.8928 -75.5733 238° Southwest 205 236 6,100 -480 Climbing New York Center
02:21PM 39.8683 -75.6583 249° West 209 241 5,100 -660 Descending New York Center
02:22PM 39.8256 -75.6364 158° South 153 176 4,800 -660 Descending New York Center
02:23PM 39.8011 -75.5697 115° Southeast 137 158 3,900 -960 Descending New York Center
02:23PM 39.8167 -75.5333 61° Northeast 178 205 3,500 -540 Descending Philadelphia TRACON
02:24PM 39.8167 -75.4833 90° East 177 204 3,200 -300 Descending Philadelphia TRACON